createdAt,value
2018-01-13T00:00:44.302Z,347.33
2018-01-13T00:02:46.976Z,374.47
2018-01-13T00:04:49.624Z,368.30
2018-01-13T00:06:52.285Z,361.90
2018-01-13T00:08:55.732Z,403.83
2018-01-13T00:10:58.380Z,381.17
2018-01-13T00:13:01.267Z,409.87
2018-01-13T00:15:03.997Z,395.90
2018-01-13T00:17:07.412Z,401.73
2018-01-13T00:19:10.130Z,421.07
2018-01-13T00:21:12.826Z,402.43
2018-01-13T00:23:15.463Z,369.40
2018-01-13T00:25:18.158Z,361.73
2018-01-13T00:27:20.807Z,404.00
2018-01-13T00:29:23.479Z,418.33
2018-01-13T00:31:26.185Z,415.67
2018-01-13T00:33:28.830Z,371.47
2018-01-13T00:35:31.495Z,397.80
2018-01-13T00:37:34.186Z,357.67
2018-01-13T00:39:36.850Z,401.43
2018-01-13T00:41:39.538Z,386.50
2018-01-13T00:43:42.220Z,369.90
2018-01-13T00:45:44.887Z,379.83
2018-01-13T00:47:47.668Z,383.63
2018-01-13T00:49:50.445Z,398.43
2018-01-13T00:51:53.091Z,379.73
2018-01-13T00:53:56.522Z,401.50
2018-01-13T00:55:59.200Z,382.60
2018-01-13T00:58:01.863Z,383.90
2018-01-13T01:00:04.523Z,386.47
2018-01-13T01:02:08.018Z,397.20
2018-01-13T01:04:11.453Z,383.90
2018-01-13T01:06:14.107Z,380.57
2018-01-13T01:08:16.792Z,358.40
2018-01-13T01:10:19.542Z,379.43
2018-01-13T01:12:22.961Z,414.97
2018-01-13T01:14:25.638Z,400.70
2018-01-13T01:16:28.306Z,403.43
2018-01-13T01:18:31.292Z,401.10
2018-01-13T01:20:33.978Z,396.13
2018-01-13T01:22:36.638Z,372.53
2018-01-13T01:24:39.307Z,391.40
2018-01-13T01:26:41.982Z,431.97
2018-01-13T01:28:44.672Z,429.43
2018-01-13T01:30:47.324Z,423.77
2018-01-13T01:32:50.778Z,410.20
2018-01-13T01:34:55.008Z,453.47
2018-01-13T01:36:57.660Z,418.60
2018-01-13T01:39:00.350Z,420.90
2018-01-13T01:41:03.004Z,436.27
2018-01-13T01:43:05.652Z,455.20
2018-01-13T01:45:08.343Z,436.90
2018-01-13T01:47:11.001Z,427.80
2018-01-13T01:49:13.669Z,415.70
2018-01-13T01:51:16.340Z,457.10
2018-01-13T01:53:19.859Z,441.63
2018-01-13T01:55:22.519Z,436.77
2018-01-13T01:57:25.211Z,433.30
2018-01-13T01:59:27.866Z,448.07
2018-01-13T02:01:30.566Z,433.63
2018-01-13T02:03:33.474Z,434.77
2018-01-13T02:05:36.115Z,443.17
2018-01-13T02:07:38.790Z,417.07
2018-01-13T02:09:41.483Z,440.90
2018-01-13T02:11:44.143Z,458.90
2018-01-13T02:13:46.912Z,437.77
2018-01-13T02:15:49.603Z,402.33
2018-01-13T02:17:52.277Z,391.43
2018-01-13T02:19:55.056Z,422.90
2018-01-13T02:21:57.734Z,453.60
2018-01-13T02:24:00.534Z,372.43
2018-01-13T02:26:03.181Z,428.63
2018-01-13T02:28:05.844Z,429.90
2018-01-13T02:30:08.522Z,429.40
2018-01-13T02:32:11.960Z,436.43
2018-01-13T02:34:14.823Z,409.53
2018-01-13T02:36:17.481Z,448.27
2018-01-13T02:38:20.151Z,436.07
2018-01-13T02:40:22.983Z,448.37
2018-01-13T02:42:25.636Z,462.20
2018-01-13T02:44:28.286Z,453.77
2018-01-13T02:46:30.971Z,453.90
2018-01-13T02:48:33.706Z,420.60
2018-01-13T02:50:36.361Z,474.37
2018-01-13T02:52:39.046Z,429.00
2018-01-13T02:54:41.706Z,470.63
2018-01-13T02:56:44.353Z,462.50
2018-01-13T02:58:47.039Z,415.17
2018-01-13T03:00:49.691Z,450.53
2018-01-13T03:02:52.364Z,478.93
2018-01-13T03:04:55.011Z,452.80
2018-01-13T03:06:57.665Z,443.53
2018-01-13T03:09:00.350Z,435.17
2018-01-13T03:11:03.014Z,470.67
2018-01-13T03:13:05.656Z,379.20
2018-01-13T03:15:08.340Z,379.80
2018-01-13T03:17:11.011Z,398.70
2018-01-13T03:19:13.669Z,472.70
2018-01-13T03:21:17.121Z,424.50
2018-01-13T03:23:19.786Z,420.63
2018-01-13T03:25:22.526Z,444.90
2018-01-13T03:27:25.206Z,416.40
2018-01-13T03:29:27.865Z,458.30
2018-01-13T03:31:31.304Z,510.27
2018-01-13T03:33:34.003Z,437.47
2018-01-13T03:35:36.667Z,446.20
2018-01-13T03:37:39.544Z,478.03
2018-01-13T03:39:42.195Z,406.43
2018-01-13T03:41:44.878Z,478.60
2018-01-13T03:43:47.562Z,495.03
2018-01-13T03:45:50.221Z,481.63
2018-01-13T03:47:53.165Z,464.47
2018-01-13T03:49:55.910Z,486.60
2018-01-13T03:51:58.571Z,483.77
2018-01-13T03:54:01.442Z,436.67
2018-01-13T03:56:04.110Z,453.80
2018-01-13T03:58:06.778Z,483.30
2018-01-13T04:00:09.427Z,485.23
2018-01-13T04:02:12.110Z,507.97
2018-01-13T04:04:15.539Z,471.70
2018-01-13T04:06:18.246Z,446.53
2018-01-13T04:08:20.910Z,428.43
2018-01-13T04:10:23.561Z,393.20
2018-01-13T04:12:26.245Z,397.83
2018-01-13T04:14:28.902Z,428.63
2018-01-13T04:16:31.573Z,466.13
2018-01-13T04:18:35.025Z,424.00
2018-01-13T04:20:37.667Z,441.83
2018-01-13T04:22:41.359Z,434.50
2018-01-13T04:24:44.043Z,421.47
2018-01-13T04:26:46.726Z,397.80
2018-01-13T04:28:49.378Z,393.47
2018-01-13T04:30:52.093Z,362.23
2018-01-13T04:32:54.742Z,361.60
2018-01-13T04:34:57.397Z,344.20
2018-01-13T04:37:00.854Z,388.30
2018-01-13T04:39:03.563Z,398.87
2018-01-13T04:41:06.976Z,405.43
2018-01-13T04:43:09.760Z,401.07
2018-01-13T04:45:12.408Z,360.10
2018-01-13T04:47:15.824Z,434.93
2018-01-13T04:49:19.264Z,372.47
2018-01-13T04:51:21.974Z,375.73
2018-01-13T04:53:25.391Z,419.97
2018-01-13T04:55:28.102Z,381.00
2018-01-13T04:57:30.766Z,374.87
2018-01-13T04:59:33.435Z,364.07
2018-01-13T05:01:36.127Z,398.03
2018-01-13T05:03:38.786Z,396.93
2018-01-13T05:05:41.427Z,353.50
2018-01-13T05:07:44.874Z,371.97
2018-01-13T05:09:47.534Z,367.07
2018-01-13T05:11:50.338Z,348.83
2018-01-13T05:13:53.001Z,365.57
2018-01-13T05:15:55.652Z,361.97
2018-01-13T05:17:58.464Z,335.10
2018-01-13T05:20:01.103Z,366.20
2018-01-13T05:22:03.796Z,379.47
2018-01-13T05:24:06.497Z,382.90
2018-01-13T05:26:09.150Z,347.47
2018-01-13T05:28:11.822Z,322.77
2018-01-13T05:30:14.503Z,344.80
2018-01-13T05:32:17.153Z,364.40
2018-01-13T05:34:19.799Z,351.40
2018-01-13T05:36:22.482Z,385.10
2018-01-13T05:38:25.910Z,353.83
2018-01-13T05:40:28.586Z,361.17
2018-01-13T05:42:31.293Z,345.53
2018-01-13T05:44:33.949Z,340.63
2018-01-13T05:46:36.634Z,313.80
2018-01-13T05:48:39.326Z,351.70
2018-01-13T05:50:41.977Z,352.17
2018-01-13T05:52:44.732Z,380.43
2018-01-13T05:54:47.457Z,365.80
2018-01-13T05:56:50.125Z,409.40
2018-01-13T05:58:52.775Z,346.80
2018-01-13T06:00:55.466Z,332.50
2018-01-13T06:02:58.108Z,346.50
2018-01-13T06:05:00.764Z,422.83
2018-01-13T06:07:04.218Z,376.67
2018-01-13T06:09:06.886Z,379.70
2018-01-13T06:11:09.720Z,381.60
2018-01-13T06:13:13.182Z,374.20
2018-01-13T06:17:27.306Z,316.50
2018-01-13T06:19:29.996Z,324.03
2018-01-13T06:21:32.658Z,403.63
2018-01-13T06:23:35.318Z,359.93
2018-01-13T06:25:38.065Z,359.17
2018-01-13T06:27:40.704Z,370.67
2018-01-13T06:29:43.371Z,412.77
2018-01-13T06:31:46.061Z,355.57
2018-01-13T06:33:48.729Z,401.40
2018-01-13T06:35:51.424Z,372.73
2018-01-13T06:37:54.094Z,419.17
2018-01-13T06:39:57.020Z,395.47
2018-01-13T06:42:00.451Z,447.07
2018-01-13T06:44:03.269Z,410.93
2018-01-13T06:46:05.928Z,405.93
2018-01-13T06:48:08.622Z,387.83
2018-01-13T06:50:11.265Z,423.97
2018-01-13T06:52:13.952Z,427.43
2018-01-13T06:54:16.756Z,389.67
2018-01-13T06:56:19.406Z,331.17
2018-01-13T06:58:22.157Z,456.33
2018-01-13T07:00:24.831Z,387.17
2018-01-13T07:02:27.500Z,408.37
2018-01-13T07:04:30.218Z,353.27
2018-01-13T07:06:32.909Z,454.70
2018-01-13T07:08:35.591Z,362.77
2018-01-13T07:10:38.237Z,430.13
2018-01-13T07:12:40.916Z,439.13
2018-01-13T07:14:43.553Z,326.47
2018-01-13T07:16:46.627Z,383.03
2018-01-13T07:18:50.197Z,403.20
2018-01-13T07:20:52.860Z,282.53
2018-01-13T07:22:55.598Z,340.03
2018-01-13T07:24:58.277Z,368.53
2018-01-13T07:27:00.916Z,379.77
2018-01-13T07:29:04.354Z,359.20
2018-01-13T07:31:07.138Z,344.77
2018-01-13T07:33:09.823Z,307.53
2018-01-13T07:35:12.468Z,296.77
2018-01-13T07:37:15.338Z,321.60
2018-01-13T07:39:18.058Z,283.63
2018-01-13T07:41:20.733Z,315.30
2018-01-13T07:43:23.410Z,333.20
2018-01-13T07:45:26.064Z,301.83
2018-01-13T07:47:28.935Z,311.33
2018-01-13T07:49:32.474Z,316.33
2018-01-13T07:51:35.147Z,314.17
2018-01-13T07:53:37.809Z,342.20
2018-01-13T07:55:40.694Z,308.30
2018-01-13T07:57:43.464Z,303.43
2018-01-13T07:59:46.159Z,291.63
2018-01-13T08:01:48.803Z,310.13
2018-01-13T08:03:51.456Z,273.27
2018-01-13T08:05:55.046Z,298.13
2018-01-13T08:07:58.486Z,317.57
2018-01-13T08:10:01.224Z,251.37
2018-01-13T08:12:04.678Z,250.63
2018-01-13T08:14:07.356Z,276.83
2018-01-13T08:16:10.102Z,290.30
2018-01-13T08:18:12.761Z,268.03
2018-01-13T08:20:15.427Z,233.90
2018-01-13T08:22:18.230Z,243.83
2018-01-13T08:24:20.899Z,235.47
2018-01-13T08:26:23.553Z,239.13
2018-01-13T08:28:26.992Z,236.50
2018-01-13T08:30:29.707Z,225.67
2018-01-13T08:32:32.660Z,257.60
2018-01-13T08:34:35.360Z,234.63
2018-01-13T08:36:38.029Z,195.87
2018-01-13T08:38:40.685Z,224.23
2018-01-13T08:40:43.423Z,208.30
2018-01-13T08:42:46.089Z,197.33
2018-01-13T08:44:49.511Z,175.27
2018-01-13T08:46:52.272Z,167.57
2018-01-13T08:48:54.924Z,159.57
2018-01-13T08:50:58.335Z,175.57
2018-01-13T08:53:01.780Z,160.90
2018-01-13T08:55:04.457Z,167.40
2018-01-13T08:57:07.120Z,158.00
2018-01-13T08:59:09.826Z,155.57
2018-01-13T09:01:12.512Z,143.83
2018-01-13T09:03:15.213Z,137.77
2018-01-13T09:05:18.663Z,137.17
2018-01-13T09:07:21.337Z,147.27
2018-01-13T09:09:24.001Z,113.77
2018-01-13T09:11:26.679Z,131.00
2018-01-13T09:13:29.323Z,119.80
2018-01-13T09:15:32.011Z,114.60
2018-01-13T09:17:34.913Z,127.03
2018-01-13T09:19:39.624Z,92.23
2018-01-13T09:21:42.348Z,96.20
2018-01-13T09:23:45.671Z,84.30
2018-01-13T09:25:48.453Z,83.43
2018-01-13T09:27:51.263Z,75.73
2018-01-13T09:29:53.950Z,72.67
2018-01-13T09:31:56.631Z,76.50
2018-01-13T09:33:59.338Z,72.90
2018-01-13T09:36:03.489Z,71.30
2018-01-13T09:38:06.190Z,63.83
2018-01-13T09:40:08.879Z,51.03
2018-01-13T09:42:11.551Z,56.87
2018-01-13T09:44:14.436Z,55.60
2018-01-13T09:46:17.126Z,40.40
2018-01-13T09:48:20.602Z,42.40
2018-01-13T09:50:23.280Z,44.00
2018-01-13T09:52:26.076Z,40.60
2018-01-13T09:54:29.508Z,43.97
2018-01-13T09:56:32.752Z,40.20
2018-01-13T09:58:35.452Z,37.07
2018-01-13T10:00:38.901Z,38.30
2018-01-13T10:02:41.577Z,36.73
2018-01-13T10:04:44.262Z,37.87
2018-01-13T10:06:47.721Z,36.13
2018-01-13T10:08:50.375Z,34.07
2018-01-13T10:10:53.812Z,34.33
2018-01-13T10:12:56.454Z,35.30
2018-01-13T10:14:59.099Z,36.87
2018-01-13T10:17:02.559Z,34.30
2018-01-13T10:19:05.421Z,34.23
2018-01-13T10:21:08.112Z,34.57
2018-01-13T10:23:10.766Z,33.77
2018-01-13T10:25:13.462Z,35.30
2018-01-13T10:27:16.133Z,33.03
2018-01-13T10:29:18.795Z,34.77
2018-01-13T10:31:21.531Z,32.57
2018-01-13T10:33:24.205Z,33.67
2018-01-13T10:35:26.849Z,35.33
2018-01-13T10:37:29.498Z,39.63
2018-01-13T10:39:32.160Z,33.57
2018-01-13T10:41:34.829Z,32.77
2018-01-13T10:43:38.305Z,33.70
2018-01-13T10:45:40.962Z,34.83
2018-01-13T10:47:43.609Z,37.53
2018-01-13T10:49:46.296Z,33.80
2018-01-13T10:51:48.954Z,32.23
2018-01-13T10:53:51.607Z,35.00
2018-01-13T10:55:54.294Z,29.33
2018-01-13T10:57:56.943Z,37.90
2018-01-13T11:00:00.374Z,33.13
2018-01-13T11:02:03.068Z,33.83
2018-01-13T11:04:06.004Z,31.27
2018-01-13T11:06:09.436Z,35.07
2018-01-13T11:08:12.124Z,32.07
2018-01-13T11:10:14.765Z,32.63
2018-01-13T11:12:17.439Z,35.13
2018-01-13T11:14:20.121Z,29.60
2018-01-13T11:16:22.817Z,28.30
2018-01-13T11:18:25.459Z,31.37
2018-01-13T11:20:28.155Z,34.10
2018-01-13T11:22:30.820Z,29.53
2018-01-13T11:24:33.477Z,31.77
2018-01-13T11:26:37.015Z,30.97
2018-01-13T11:28:39.672Z,29.90
2018-01-13T11:30:42.338Z,30.33
2018-01-13T11:32:45.023Z,29.10
2018-01-13T11:34:47.813Z,30.57
2018-01-13T11:36:50.464Z,25.90
2018-01-13T11:38:53.966Z,24.53
2018-01-13T11:40:56.613Z,26.33
2018-01-13T11:42:59.278Z,20.97
2018-01-13T11:45:01.966Z,22.37
2018-01-13T11:47:04.646Z,25.47
2018-01-13T11:49:08.075Z,25.87
2018-01-13T11:51:10.792Z,26.10
2018-01-13T11:53:13.462Z,23.67
2018-01-13T11:55:16.107Z,25.00
2018-01-13T11:57:18.776Z,18.77
2018-01-13T11:59:21.426Z,20.17
2018-01-13T12:01:24.112Z,24.33
2018-01-13T12:03:26.769Z,21.23
2018-01-13T12:05:29.410Z,21.17
2018-01-13T12:07:32.852Z,20.73
2018-01-13T12:09:35.501Z,21.73
2018-01-13T12:11:38.161Z,23.30
2018-01-13T12:13:41.623Z,20.10
2018-01-13T12:15:44.280Z,24.30
2018-01-13T12:17:46.929Z,21.67
2018-01-13T12:19:49.612Z,28.33
2018-01-13T12:21:52.263Z,27.83
2018-01-13T12:23:54.943Z,22.33
2018-01-13T12:25:57.684Z,21.87
2018-01-13T12:28:01.329Z,25.43
2018-01-13T12:30:04.024Z,21.50
2018-01-13T12:32:06.787Z,20.20
2018-01-13T12:34:10.572Z,21.50
2018-01-13T12:36:13.568Z,20.90
2018-01-13T12:38:16.345Z,24.27
2018-01-13T12:40:19.243Z,22.60
2018-01-13T12:42:22.114Z,19.60
2018-01-13T12:44:24.786Z,21.10
2018-01-13T12:46:27.565Z,17.80
2018-01-13T12:48:30.242Z,15.80
2018-01-13T12:50:32.908Z,17.80
2018-01-13T12:52:35.590Z,19.33
2018-01-13T12:54:38.277Z,16.20
2018-01-13T12:56:41.186Z,18.23
2018-01-13T12:58:43.839Z,18.20
2018-01-13T13:00:46.528Z,17.23
2018-01-13T13:02:49.182Z,15.23
2018-01-13T13:04:52.107Z,16.00
2018-01-13T13:06:54.763Z,17.53
2018-01-13T13:08:57.407Z,13.77
2018-01-13T13:11:00.089Z,13.17
2018-01-13T13:13:02.777Z,14.33
2018-01-13T13:15:05.446Z,12.73
2018-01-13T13:17:08.764Z,14.47
2018-01-13T13:19:11.409Z,20.53
2018-01-13T13:21:14.088Z,15.93
2018-01-13T13:23:19.214Z,19.67
2018-01-13T13:25:22.175Z,17.13
2018-01-13T13:27:25.601Z,15.67
2018-01-13T13:29:28.282Z,12.10
2018-01-13T13:31:30.925Z,17.63
2018-01-13T13:33:34.382Z,18.07
2018-01-13T13:35:37.064Z,15.17
2018-01-13T13:37:39.745Z,18.67
2018-01-13T13:39:43.202Z,17.40
2018-01-13T13:41:45.886Z,16.40
2018-01-13T13:43:48.640Z,17.60
2018-01-13T13:45:51.288Z,23.50
2018-01-13T13:47:54.728Z,20.23
2018-01-13T13:49:57.372Z,19.50
2018-01-13T13:52:00.019Z,19.43
2018-01-13T13:54:02.702Z,17.17
2018-01-13T13:56:06.127Z,19.10
2018-01-13T13:58:08.779Z,16.60
2018-01-13T14:00:12.225Z,19.10
2018-01-13T14:02:14.885Z,17.00
2018-01-13T14:04:17.540Z,16.73
2018-01-13T14:06:20.239Z,16.00
2018-01-13T14:08:23.028Z,19.63
2018-01-13T14:10:25.795Z,15.80
2018-01-13T14:12:28.711Z,18.30
2018-01-13T14:14:31.385Z,17.30
2018-01-13T14:16:34.060Z,18.33
2018-01-13T14:18:36.745Z,19.30
2018-01-13T14:20:39.405Z,18.87
2018-01-13T14:22:42.072Z,21.03
2018-01-13T14:24:44.733Z,20.33
2018-01-13T14:26:47.404Z,17.67
2018-01-13T14:28:50.070Z,16.17
2018-01-13T14:30:52.708Z,17.47
2018-01-13T14:32:55.394Z,17.67
2018-01-13T14:34:58.862Z,17.80
2018-01-13T14:37:02.277Z,17.03
2018-01-13T14:39:04.989Z,17.03
2018-01-13T14:41:07.682Z,16.73
2018-01-13T14:43:10.369Z,16.43
2018-01-13T14:45:13.061Z,15.10
2018-01-13T14:47:15.703Z,20.80
2018-01-13T14:49:18.419Z,17.73
2018-01-13T14:51:21.086Z,16.20
2018-01-13T14:53:24.510Z,17.30
2018-01-13T14:55:27.953Z,17.90
2018-01-13T14:57:30.669Z,21.40
2018-01-13T14:59:33.326Z,16.53
2018-01-13T15:01:36.019Z,16.23
2018-01-13T15:03:38.696Z,17.93
2018-01-13T15:05:41.344Z,20.10
2018-01-13T15:07:43.995Z,15.77
2018-01-13T15:09:46.765Z,14.80
2018-01-13T15:11:49.437Z,14.27
2018-01-13T15:13:52.506Z,16.40
2018-01-13T15:15:55.976Z,15.37
2018-01-13T15:17:58.621Z,17.57
2018-01-13T15:20:01.262Z,14.30
2018-01-13T15:22:04.713Z,16.30
2018-01-13T15:24:07.555Z,15.50
2018-01-13T15:26:10.217Z,15.40
2018-01-13T15:28:12.884Z,15.40
2018-01-13T15:30:16.307Z,13.77
2018-01-13T15:32:18.986Z,16.33
2018-01-13T15:34:21.662Z,16.63
2018-01-13T15:36:24.324Z,17.70
2018-01-13T15:38:26.984Z,15.77
2018-01-13T15:40:30.430Z,22.60
2018-01-13T15:42:33.082Z,23.70
2018-01-13T15:44:35.793Z,17.37
2018-01-13T15:46:38.459Z,21.27
2018-01-13T15:48:41.139Z,16.83
2018-01-13T15:50:43.794Z,18.00
2018-01-13T15:52:46.482Z,16.30
2018-01-13T15:54:49.148Z,15.10
2018-01-13T15:56:51.834Z,19.90
2018-01-13T15:58:54.699Z,17.50
2018-01-13T16:00:57.367Z,18.40
2018-01-13T16:03:00.018Z,24.30
2018-01-13T16:05:02.705Z,17.13
2018-01-13T16:07:05.345Z,19.10
2018-01-13T16:09:07.984Z,18.10
2018-01-13T16:11:10.776Z,18.30
2018-01-13T16:13:13.471Z,23.27
2018-01-13T16:15:17.315Z,18.30
2018-01-13T16:17:20.259Z,16.70
2018-01-13T16:19:23.721Z,17.00
2018-01-13T16:21:26.822Z,16.57
2018-01-13T16:23:29.527Z,17.17
2018-01-13T16:25:32.261Z,18.17
2018-01-13T16:27:34.992Z,18.03
2018-01-13T16:29:37.755Z,17.43
2018-01-13T16:31:40.457Z,18.87
2018-01-13T16:33:43.915Z,14.90
2018-01-13T16:35:46.764Z,17.80
2018-01-13T16:37:49.553Z,18.20
2018-01-13T16:39:52.355Z,17.77
2018-01-13T16:41:55.895Z,21.20
2018-01-13T16:43:58.661Z,17.83
2018-01-13T16:46:01.780Z,20.07
2018-01-13T16:48:04.456Z,16.77
2018-01-13T16:50:07.236Z,19.20
2018-01-13T16:52:09.947Z,18.40
2018-01-13T16:54:15.395Z,18.90
2018-01-13T16:56:24.663Z,18.03
2018-01-13T16:58:28.537Z,15.40
2018-01-13T17:00:33.041Z,15.83
2018-01-13T17:02:36.409Z,18.07
2018-01-13T17:04:39.706Z,15.07
2018-01-13T17:06:49.039Z,16.23
2018-01-13T17:08:55.320Z,15.30
2018-01-13T17:10:59.286Z,17.57
2018-01-13T17:13:02.198Z,18.70
2018-01-13T17:15:05.128Z,17.60
2018-01-13T17:17:07.951Z,18.50
2018-01-13T17:19:10.883Z,21.20
2018-01-13T17:21:14.376Z,22.27
2018-01-13T17:23:17.075Z,19.00
2018-01-13T17:25:19.825Z,26.37
2018-01-13T17:27:25.551Z,32.77
2018-01-13T17:29:28.260Z,31.23
2018-01-13T17:31:30.942Z,25.00
2018-01-13T17:33:33.750Z,20.23
2018-01-13T17:35:36.454Z,15.00
2018-01-13T17:37:39.197Z,17.60
2018-01-13T17:39:43.125Z,21.30
2018-01-13T17:41:45.792Z,20.37
2018-01-13T17:43:48.601Z,20.20
2018-01-13T17:45:51.257Z,21.13
2018-01-13T17:47:54.004Z,18.47
2018-01-13T17:49:57.795Z,19.97
2018-01-13T17:52:00.463Z,18.03
2018-01-13T17:54:03.877Z,22.80
2018-01-13T17:56:06.640Z,22.23
2018-01-13T17:58:10.064Z,20.77
2018-01-13T18:00:12.709Z,24.93
2018-01-13T18:02:16.143Z,18.80
2018-01-13T18:04:18.785Z,18.00
2018-01-13T18:06:22.185Z,19.83
2018-01-13T18:08:24.871Z,17.63
2018-01-13T18:10:27.574Z,22.47
2018-01-13T18:12:30.218Z,18.80
2018-01-13T18:14:32.942Z,21.10
2018-01-13T18:16:35.608Z,19.50
2018-01-13T18:18:38.266Z,19.03
2018-01-13T18:20:41.031Z,20.10
2018-01-13T18:22:43.670Z,21.00
2018-01-13T18:24:46.328Z,17.97
2018-01-13T18:26:49.171Z,22.80
2018-01-13T18:28:51.819Z,22.87
2018-01-13T18:30:55.342Z,19.93
2018-01-13T18:32:58.008Z,22.23
2018-01-13T18:35:00.644Z,20.20
2018-01-13T18:37:03.345Z,20.47
2018-01-13T18:39:06.780Z,27.10
2018-01-13T18:41:09.419Z,20.70
2018-01-13T18:43:12.086Z,23.80
2018-01-13T18:45:15.520Z,22.10
2018-01-13T18:47:18.178Z,21.60
2018-01-13T18:49:20.844Z,21.23
2018-01-13T18:51:23.520Z,22.10
2018-01-13T18:53:26.307Z,20.60
2018-01-13T18:55:28.977Z,25.03
2018-01-13T18:57:31.678Z,23.77
2018-01-13T18:59:34.320Z,22.50
2018-01-13T19:01:37.748Z,23.43
2018-01-13T19:03:40.425Z,25.70
2018-01-13T19:05:43.082Z,21.77
2018-01-13T19:07:45.740Z,25.23
2018-01-13T19:09:48.431Z,24.13
2018-01-13T19:11:51.094Z,23.73
2018-01-13T19:13:53.742Z,27.23
2018-01-13T19:15:56.439Z,24.60
2018-01-13T19:18:00.058Z,24.27
2018-01-13T19:20:02.708Z,26.87
2018-01-13T19:22:06.244Z,33.30
2018-01-13T19:24:08.927Z,25.30
2018-01-13T19:26:11.593Z,25.27
2018-01-13T19:28:14.275Z,30.67
2018-01-13T19:30:16.916Z,26.20
2018-01-13T19:32:20.374Z,22.87
2018-01-13T19:34:23.015Z,25.30
2018-01-13T19:36:25.744Z,26.67
2018-01-13T19:38:29.185Z,26.03
2018-01-13T19:40:31.840Z,24.63
2018-01-13T19:42:34.502Z,24.60
2018-01-13T19:44:38.047Z,22.50
2018-01-13T19:46:41.135Z,24.47
2018-01-13T19:48:44.360Z,21.77
2018-01-13T19:50:47.071Z,26.30
2018-01-13T19:52:49.725Z,26.27
2018-01-13T19:54:56.626Z,22.87
2018-01-13T19:56:59.471Z,26.40
2018-01-13T19:59:02.297Z,24.83
2018-01-13T20:01:05.010Z,24.50
2018-01-13T20:03:07.677Z,30.00
2018-01-13T20:05:10.345Z,21.20
2018-01-13T20:07:13.583Z,25.90
2018-01-13T20:09:17.054Z,21.50
2018-01-13T20:11:20.511Z,24.23
2018-01-13T20:13:23.326Z,23.43
2018-01-13T20:15:25.972Z,33.47
2018-01-13T20:17:28.616Z,21.57
2018-01-13T20:19:31.310Z,24.57
2018-01-13T20:21:34.085Z,25.83
2018-01-13T20:23:37.544Z,22.90
2018-01-13T20:25:41.113Z,25.27
2018-01-13T20:27:43.752Z,22.60
2018-01-13T20:29:46.474Z,22.53
2018-01-13T20:31:49.220Z,28.10
2018-01-13T20:33:51.971Z,29.70
2018-01-13T20:35:54.638Z,23.27
2018-01-13T20:37:58.220Z,21.83
2018-01-13T20:40:01.365Z,22.23
2018-01-13T20:42:04.859Z,22.97
2018-01-13T20:44:07.621Z,25.27
2018-01-13T20:46:10.646Z,26.30
2018-01-13T20:48:13.308Z,27.97
2018-01-13T20:50:16.028Z,23.33
2018-01-13T20:52:20.637Z,24.97
2018-01-13T20:54:24.099Z,24.23
2018-01-13T20:56:26.819Z,23.97
2018-01-13T20:58:30.240Z,26.47
2018-01-13T21:00:32.914Z,24.00
2018-01-13T21:02:35.606Z,23.73
2018-01-13T21:04:38.415Z,23.80
2018-01-13T21:06:41.968Z,24.97
2018-01-13T21:08:45.455Z,23.53
2018-01-13T21:10:48.370Z,24.50
2018-01-13T21:12:51.188Z,26.63
2018-01-13T21:14:53.873Z,22.87
2018-01-13T21:16:57.439Z,21.90
2018-01-13T21:19:00.198Z,24.00
2018-01-13T21:21:03.270Z,22.63
2018-01-13T21:23:06.268Z,23.20
2018-01-13T21:25:08.975Z,27.73
2018-01-13T21:27:12.846Z,24.07
2018-01-13T21:29:15.711Z,26.47
2018-01-13T21:31:18.375Z,27.70
2018-01-13T21:33:23.002Z,27.90
2018-01-13T21:35:25.738Z,26.93
2018-01-13T21:37:28.408Z,33.90
2018-01-13T21:39:32.256Z,26.10
2018-01-13T21:41:34.915Z,26.87
2018-01-13T21:43:38.395Z,23.67
2018-01-13T21:45:41.946Z,23.27
2018-01-13T21:47:44.601Z,32.43
2018-01-13T21:49:47.317Z,22.83
2018-01-13T21:51:49.989Z,23.77
2018-01-13T21:53:52.672Z,26.80
2018-01-13T21:55:55.336Z,25.10
2018-01-13T21:57:58.076Z,26.00
2018-01-13T22:00:00.887Z,24.57
2018-01-13T22:02:03.563Z,28.70
2018-01-13T22:04:06.250Z,38.07
2018-01-13T22:06:09.000Z,36.73
2018-01-13T22:08:11.662Z,32.00
2018-01-13T22:10:15.102Z,30.03
2018-01-13T22:12:17.761Z,37.40
2018-01-13T22:14:20.423Z,29.23
2018-01-13T22:16:23.136Z,26.63
2018-01-13T22:18:25.887Z,30.10
2018-01-13T22:20:28.563Z,26.40
2018-01-13T22:22:31.218Z,24.97
2018-01-13T22:24:34.647Z,27.27
2018-01-13T22:26:37.327Z,25.63
2018-01-13T22:28:39.994Z,28.27
2018-01-13T22:30:42.644Z,27.10
2018-01-13T22:32:45.327Z,25.80
2018-01-13T22:34:48.201Z,25.37
2018-01-13T22:36:50.847Z,26.83
2018-01-13T22:38:53.566Z,24.87
2018-01-13T22:40:56.205Z,26.07
2018-01-13T22:42:59.635Z,29.40
2018-01-13T22:45:02.324Z,23.23
2018-01-13T22:47:04.987Z,26.37
2018-01-13T22:49:07.646Z,25.10
2018-01-13T22:51:10.331Z,24.50
2018-01-13T22:53:13.108Z,24.00
2018-01-13T22:55:16.137Z,25.57
2018-01-13T22:57:18.824Z,24.37
2018-01-13T22:59:21.561Z,24.87
2018-01-13T23:01:24.268Z,19.70
2018-01-13T23:03:26.950Z,21.83
2018-01-13T23:05:29.686Z,25.60
2018-01-13T23:07:33.295Z,27.10
2018-01-13T23:09:37.070Z,24.07
2018-01-13T23:11:39.758Z,22.70
2018-01-13T23:13:42.489Z,21.00
2018-01-13T23:15:45.210Z,23.63
2018-01-13T23:20:28.161Z,24.07
2018-01-13T23:22:30.886Z,27.47
2018-01-13T23:24:34.702Z,22.47
2018-01-13T23:26:37.634Z,22.87
2018-01-13T23:28:40.290Z,25.03
2018-01-13T23:30:43.031Z,23.20
2018-01-13T23:32:45.719Z,26.00
2018-01-13T23:34:48.692Z,22.97
2018-01-13T23:36:51.456Z,27.47
2018-01-13T23:38:54.162Z,24.30
2018-01-13T23:40:56.948Z,25.53
2018-01-13T23:42:59.631Z,24.37
2018-01-13T23:45:03.402Z,26.13
2018-01-13T23:47:07.841Z,25.60
2018-01-13T23:49:11.320Z,20.83
2018-01-13T23:51:13.973Z,25.63
2018-01-13T23:53:16.658Z,25.20
2018-01-13T23:55:19.340Z,20.97
2018-01-13T23:57:22.029Z,21.67
2018-01-13T23:59:24.828Z,23.77
